sensor_id;sensor_type;location;lat;lon;timestamp;P1;durP1;ratioP1;P2;durP2;ratioP2
4460;SDS011;2243;48.812;9.232;2022-07-11T00:00:07;2.07;;;1.63;;
4460;SDS011;2243;48.812;9.232;2022-07-11T00:02:44;1.30;;;1.20;;
4460;SDS011;2243;48.812;9.232;2022-07-11T00:05:15;2.10;;;1.43;;
4460;SDS011;2243;48.812;9.232;2022-07-11T00:07:46;1.20;;;1.10;;
4460;SDS011;2243;48.812;9.232;2022-07-11T00:10:17;1.40;;;1.30;;
4460;SDS011;2243;48.812;9.232;2022-07-11T00:12:48;1.53;;;1.33;;
4460;SDS011;2243;48.812;9.232;2022-07-11T00:15:19;1.63;;;1.50;;
4460;SDS011;2243;48.812;9.232;2022-07-11T00:17:50;1.70;;;1.60;;
4460;SDS011;2243;48.812;9.232;2022-07-11T00:20:21;1.47;;;1.47;;
4460;SDS011;2243;48.812;9.232;2022-07-11T00:22:52;2.07;;;1.53;;
4460;SDS011;2243;48.812;9.232;2022-07-11T00:25:23;2.13;;;1.63;;
4460;SDS011;2243;48.812;9.232;2022-07-11T00:27:54;1.30;;;1.20;;
4460;SDS011;2243;48.812;9.232;2022-07-11T00:30:25;1.50;;;1.23;;
4460;SDS011;2243;48.812;9.232;2022-07-11T00:32:56;2.80;;;1.70;;
4460;SDS011;2243;48.812;9.232;2022-07-11T00:35:27;2.07;;;1.50;;
4460;SDS011;2243;48.812;9.232;2022-07-11T00:37:58;6.37;;;3.00;;
4460;SDS011;2243;48.812;9.232;2022-07-11T00:40:28;3.87;;;2.80;;
4460;SDS011;2243;48.812;9.232;2022-07-11T00:43:00;3.00;;;2.70;;
4460;SDS011;2243;48.812;9.232;2022-07-11T00:45:34;4.33;;;3.07;;
4460;SDS011;2243;48.812;9.232;2022-07-11T00:48:05;3.00;;;2.50;;
4460;SDS011;2243;48.812;9.232;2022-07-11T00:50:36;7.23;;;2.57;;
4460;SDS011;2243;48.812;9.232;2022-07-11T00:53:07;4.97;;;2.73;;
4460;SDS011;2243;48.812;9.232;2022-07-11T00:55:38;3.80;;;3.23;;
4460;SDS011;2243;48.812;9.232;2022-07-11T00:58:11;4.90;;;2.97;;
4460;SDS011;2243;48.812;9.232;2022-07-11T01:00:43;3.67;;;2.83;;
4460;SDS011;2243;48.812;9.232;2022-07-11T01:03:14;3.43;;;3.00;;
4460;SDS011;2243;48.812;9.232;2022-07-11T01:05:45;4.17;;;3.30;;
4460;SDS011;2243;48.812;9.232;2022-07-11T01:08:16;6.60;;;3.87;;
4460;SDS011;2243;48.812;9.232;2022-07-11T01:10:47;5.20;;;3.33;;
4460;SDS011;2243;48.812;9.232;2022-07-11T01:13:18;6.67;;;3.37;;
4460;SDS011;2243;48.812;9.232;2022-07-11T01:15:49;4.43;;;3.53;;
4460;SDS011;2243;48.812;9.232;2022-07-11T01:18:20;6.37;;;4.00;;
4460;SDS011;2243;48.812;9.232;2022-07-11T01:20:51;3.93;;;3.53;;
4460;SDS011;2243;48.812;9.232;2022-07-11T01:23:22;4.07;;;3.70;;
4460;SDS011;2243;48.812;9.232;2022-07-11T01:25:53;3.77;;;3.47;;
4460;SDS011;2243;48.812;9.232;2022-07-11T01:28:25;7.40;;;3.57;;
4460;SDS011;2243;48.812;9.232;2022-07-11T01:30:56;4.20;;;3.60;;
4460;SDS011;2243;48.812;9.232;2022-07-11T01:33:27;4.50;;;2.90;;
4460;SDS011;2243;48.812;9.232;2022-07-11T01:36:02;2.97;;;2.77;;
4460;SDS011;2243;48.812;9.232;2022-07-11T01:38:34;2.80;;;2.60;;
4460;SDS011;2243;48.812;9.232;2022-07-11T01:41:06;3.53;;;2.50;;
4460;SDS011;2243;48.812;9.232;2022-07-11T01:43:37;5.43;;;3.00;;
4460;SDS011;2243;48.812;9.232;2022-07-11T01:46:08;3.60;;;3.30;;
4460;SDS011;2243;48.812;9.232;2022-07-11T01:48:39;4.43;;;3.33;;
4460;SDS011;2243;48.812;9.232;2022-07-11T01:51:10;2.97;;;2.77;;
4460;SDS011;2243;48.812;9.232;2022-07-11T01:53:42;4.23;;;3.63;;
4460;SDS011;2243;48.812;9.232;2022-07-11T01:56:14;4.27;;;3.50;;
4460;SDS011;2243;48.812;9.232;2022-07-11T01:58:50;6.83;;;2.80;;
4460;SDS011;2243;48.812;9.232;2022-07-11T02:01:21;7.87;;;2.87;;
4460;SDS011;2243;48.812;9.232;2022-07-11T02:03:52;3.03;;;2.73;;
4460;SDS011;2243;48.812;9.232;2022-07-11T02:06:25;2.83;;;2.63;;
4460;SDS011;2243;48.812;9.232;2022-07-11T02:08:56;7.13;;;2.67;;
4460;SDS011;2243;48.812;9.232;2022-07-11T02:11:27;4.93;;;3.20;;
4460;SDS011;2243;48.812;9.232;2022-07-11T02:13:58;3.73;;;2.50;;
4460;SDS011;2243;48.812;9.232;2022-07-11T02:16:28;2.90;;;2.70;;
4460;SDS011;2243;48.812;9.232;2022-07-11T02:19:00;6.50;;;2.50;;
4460;SDS011;2243;48.812;9.232;2022-07-11T02:21:31;4.93;;;2.73;;
4460;SDS011;2243;48.812;9.232;2022-07-11T02:24:03;7.80;;;2.70;;
4460;SDS011;2243;48.812;9.232;2022-07-11T02:26:35;3.50;;;3.30;;
4460;SDS011;2243;48.812;9.232;2022-07-11T02:29:06;4.07;;;2.90;;
4460;SDS011;2243;48.812;9.232;2022-07-11T02:31:39;3.10;;;2.80;;
4460;SDS011;2243;48.812;9.232;2022-07-11T02:34:10;3.43;;;2.37;;
4460;SDS011;2243;48.812;9.232;2022-07-11T02:36:41;2.83;;;2.63;;
4460;SDS011;2243;48.812;9.232;2022-07-11T02:39:12;2.30;;;2.20;;
4460;SDS011;2243;48.812;9.232;2022-07-11T02:41:43;3.80;;;2.60;;
4460;SDS011;2243;48.812;9.232;2022-07-11T02:44:14;2.80;;;2.33;;
4460;SDS011;2243;48.812;9.232;2022-07-11T02:46:45;7.87;;;2.77;;
4460;SDS011;2243;48.812;9.232;2022-07-11T02:49:16;2.07;;;1.97;;
4460;SDS011;2243;48.812;9.232;2022-07-11T02:51:47;4.53;;;3.20;;
4460;SDS011;2243;48.812;9.232;2022-07-11T02:54:17;2.27;;;2.17;;
4460;SDS011;2243;48.812;9.232;2022-07-11T02:56:48;4.20;;;2.53;;
4460;SDS011;2243;48.812;9.232;2022-07-11T02:59:19;4.23;;;2.30;;
4460;SDS011;2243;48.812;9.232;2022-07-11T03:01:52;5.00;;;2.13;;
4460;SDS011;2243;48.812;9.232;2022-07-11T03:04:23;5.17;;;2.23;;
4460;SDS011;2243;48.812;9.232;2022-07-11T03:06:54;4.13;;;2.40;;
4460;SDS011;2243;48.812;9.232;2022-07-11T03:09:25;2.33;;;2.00;;
4460;SDS011;2243;48.812;9.232;2022-07-11T03:11:57;3.67;;;2.73;;
4460;SDS011;2243;48.812;9.232;2022-07-11T03:14:28;3.10;;;2.90;;
4460;SDS011;2243;48.812;9.232;2022-07-11T03:16:59;3.33;;;2.80;;
4460;SDS011;2243;48.812;9.232;2022-07-11T03:19:30;2.80;;;2.60;;
4460;SDS011;2243;48.812;9.232;2022-07-11T03:22:01;3.40;;;2.53;;
4460;SDS011;2243;48.812;9.232;2022-07-11T03:24:34;4.97;;;2.90;;
4460;SDS011;2243;48.812;9.232;2022-07-11T03:27:06;3.10;;;2.90;;
4460;SDS011;2243;48.812;9.232;2022-07-11T03:29:42;4.80;;;3.30;;
4460;SDS011;2243;48.812;9.232;2022-07-11T03:32:13;4.47;;;3.10;;
4460;SDS011;2243;48.812;9.232;2022-07-11T03:34:44;2.93;;;2.67;;
4460;SDS011;2243;48.812;9.232;2022-07-11T03:37:35;4.83;;;3.17;;
4460;SDS011;2243;48.812;9.232;2022-07-11T03:40:06;7.40;;;3.43;;
4460;SDS011;2243;48.812;9.232;2022-07-11T03:42:38;3.30;;;3.00;;
4460;SDS011;2243;48.812;9.232;2022-07-11T03:45:10;3.87;;;2.60;;
4460;SDS011;2243;48.812;9.232;2022-07-11T03:47:41;4.63;;;3.13;;
4460;SDS011;2243;48.812;9.232;2022-07-11T03:50:12;4.33;;;3.23;;
4460;SDS011;2243;48.812;9.232;2022-07-11T03:52:43;4.10;;;3.40;;
4460;SDS011;2243;48.812;9.232;2022-07-11T03:55:14;3.10;;;2.90;;
4460;SDS011;2243;48.812;9.232;2022-07-11T03:57:45;3.20;;;3.00;;
4460;SDS011;2243;48.812;9.232;2022-07-11T04:00:16;4.10;;;3.20;;
4460;SDS011;2243;48.812;9.232;2022-07-11T04:02:49;4.03;;;2.67;;
4460;SDS011;2243;48.812;9.232;2022-07-11T04:05:20;5.10;;;3.20;;
4460;SDS011;2243;48.812;9.232;2022-07-11T04:07:51;5.27;;;3.17;;
4460;SDS011;2243;48.812;9.232;2022-07-11T04:10:23;4.23;;;3.07;;
4460;SDS011;2243;48.812;9.232;2022-07-11T04:12:54;3.40;;;3.10;;
4460;SDS011;2243;48.812;9.232;2022-07-11T04:15:25;5.13;;;3.90;;
4460;SDS011;2243;48.812;9.232;2022-07-11T04:17:56;5.23;;;4.63;;
4460;SDS011;2243;48.812;9.232;2022-07-11T04:20:27;4.10;;;3.00;;
4460;SDS011;2243;48.812;9.232;2022-07-11T04:22:58;3.33;;;3.07;;
4460;SDS011;2243;48.812;9.232;2022-07-11T04:25:29;4.17;;;3.17;;
4460;SDS011;2243;48.812;9.232;2022-07-11T04:28:00;4.10;;;2.93;;
4460;SDS011;2243;48.812;9.232;2022-07-11T04:30:31;2.67;;;2.47;;
4460;SDS011;2243;48.812;9.232;2022-07-11T04:33:03;3.77;;;3.30;;
4460;SDS011;2243;48.812;9.232;2022-07-11T04:35:40;3.27;;;2.97;;
4460;SDS011;2243;48.812;9.232;2022-07-11T04:38:12;2.70;;;2.50;;
4460;SDS011;2243;48.812;9.232;2022-07-11T04:40:43;3.60;;;3.03;;
4460;SDS011;2243;48.812;9.232;2022-07-11T04:43:14;3.17;;;2.93;;
4460;SDS011;2243;48.812;9.232;2022-07-11T04:45:45;4.13;;;3.67;;
4460;SDS011;2243;48.812;9.232;2022-07-11T04:48:16;7.63;;;2.87;;
4460;SDS011;2243;48.812;9.232;2022-07-11T04:50:47;6.60;;;3.60;;
4460;SDS011;2243;48.812;9.232;2022-07-11T04:53:18;5.33;;;3.60;;
4460;SDS011;2243;48.812;9.232;2022-07-11T04:55:49;4.03;;;3.47;;
4460;SDS011;2243;48.812;9.232;2022-07-11T04:58:20;5.30;;;3.90;;
4460;SDS011;2243;48.812;9.232;2022-07-11T05:00:51;3.53;;;3.23;;
4460;SDS011;2243;48.812;9.232;2022-07-11T05:03:22;5.47;;;3.97;;
4460;SDS011;2243;48.812;9.232;2022-07-11T05:05:53;3.93;;;3.60;;
4460;SDS011;2243;48.812;9.232;2022-07-11T05:08:24;4.00;;;3.70;;
4460;SDS011;2243;48.812;9.232;2022-07-11T05:10:55;9.47;;;3.90;;
4460;SDS011;2243;48.812;9.232;2022-07-11T05:13:27;6.43;;;4.07;;
4460;SDS011;2243;48.812;9.232;2022-07-11T05:15:58;4.40;;;3.47;;
4460;SDS011;2243;48.812;9.232;2022-07-11T05:18:29;5.97;;;3.90;;
4460;SDS011;2243;48.812;9.232;2022-07-11T05:21:00;4.30;;;3.90;;
4460;SDS011;2243;48.812;9.232;2022-07-11T05:23:31;5.97;;;4.40;;
4460;SDS011;2243;48.812;9.232;2022-07-11T05:26:02;7.43;;;3.57;;
4460;SDS011;2243;48.812;9.232;2022-07-11T05:28:34;7.10;;;4.20;;
4460;SDS011;2243;48.812;9.232;2022-07-11T05:31:06;9.67;;;4.17;;
4460;SDS011;2243;48.812;9.232;2022-07-11T05:33:37;5.63;;;4.20;;
4460;SDS011;2243;48.812;9.232;2022-07-11T05:36:09;6.53;;;3.77;;
4460;SDS011;2243;48.812;9.232;2022-07-11T05:38:39;6.70;;;4.17;;
4460;SDS011;2243;48.812;9.232;2022-07-11T05:41:17;4.23;;;3.93;;
4460;SDS011;2243;48.812;9.232;2022-07-11T05:43:48;4.70;;;4.20;;
4460;SDS011;2243;48.812;9.232;2022-07-11T05:46:19;5.77;;;4.00;;
4460;SDS011;2243;48.812;9.232;2022-07-11T05:48:50;5.57;;;3.60;;
4460;SDS011;2243;48.812;9.232;2022-07-11T05:51:26;4.70;;;3.90;;
4460;SDS011;2243;48.812;9.232;2022-07-11T05:53:58;4.97;;;4.30;;
4460;SDS011;2243;48.812;9.232;2022-07-11T05:56:29;9.10;;;4.33;;
4460;SDS011;2243;48.812;9.232;2022-07-11T05:59:00;5.00;;;4.60;;
4460;SDS011;2243;48.812;9.232;2022-07-11T06:01:34;4.73;;;4.33;;
4460;SDS011;2243;48.812;9.232;2022-07-11T06:04:06;6.47;;;4.17;;
4460;SDS011;2243;48.812;9.232;2022-07-11T06:06:37;5.10;;;4.33;;
4460;SDS011;2243;48.812;9.232;2022-07-11T06:09:08;8.73;;;4.67;;
4460;SDS011;2243;48.812;9.232;2022-07-11T06:11:40;10.17;;;4.37;;
4460;SDS011;2243;48.812;9.232;2022-07-11T06:14:11;5.60;;;4.83;;
4460;SDS011;2243;48.812;9.232;2022-07-11T06:16:42;4.40;;;4.10;;
4460;SDS011;2243;48.812;9.232;2022-07-11T06:19:13;4.83;;;4.37;;
4460;SDS011;2243;48.812;9.232;2022-07-11T06:21:44;5.53;;;4.23;;
4460;SDS011;2243;48.812;9.232;2022-07-11T06:24:15;5.43;;;4.90;;
4460;SDS011;2243;48.812;9.232;2022-07-11T06:26:46;7.57;;;4.20;;
4460;SDS011;2243;48.812;9.232;2022-07-11T06:29:17;7.40;;;5.17;;
4460;SDS011;2243;48.812;9.232;2022-07-11T06:31:48;5.70;;;4.50;;
4460;SDS011;2243;48.812;9.232;2022-07-11T06:34:19;4.43;;;3.80;;
4460;SDS011;2243;48.812;9.232;2022-07-11T06:36:53;4.77;;;4.20;;
4460;SDS011;2243;48.812;9.232;2022-07-11T06:39:24;4.50;;;4.20;;
4460;SDS011;2243;48.812;9.232;2022-07-11T06:41:55;4.47;;;4.00;;
4460;SDS011;2243;48.812;9.232;2022-07-11T06:44:26;6.43;;;4.50;;
4460;SDS011;2243;48.812;9.232;2022-07-11T06:46:57;4.33;;;3.83;;
4460;SDS011;2243;48.812;9.232;2022-07-11T06:49:28;4.87;;;4.37;;
4460;SDS011;2243;48.812;9.232;2022-07-11T06:51:59;7.63;;;4.63;;
4460;SDS011;2243;48.812;9.232;2022-07-11T06:54:30;4.40;;;4.00;;
4460;SDS011;2243;48.812;9.232;2022-07-11T06:57:01;6.23;;;4.10;;
4460;SDS011;2243;48.812;9.232;2022-07-11T06:59:40;4.03;;;3.73;;
4460;SDS011;2243;48.812;9.232;2022-07-11T07:02:11;4.23;;;3.80;;
4460;SDS011;2243;48.812;9.232;2022-07-11T07:04:42;4.57;;;3.80;;
4460;SDS011;2243;48.812;9.232;2022-07-11T07:07:13;4.87;;;4.47;;
4460;SDS011;2243;48.812;9.232;2022-07-11T07:09:44;5.50;;;5.00;;
4460;SDS011;2243;48.812;9.232;2022-07-11T07:12:15;5.17;;;4.27;;
4460;SDS011;2243;48.812;9.232;2022-07-11T07:14:47;14.90;;;4.87;;
4460;SDS011;2243;48.812;9.232;2022-07-11T07:17:18;5.13;;;4.17;;
4460;SDS011;2243;48.812;9.232;2022-07-11T07:19:50;5.97;;;5.03;;
4460;SDS011;2243;48.812;9.232;2022-07-11T07:22:21;6.30;;;4.67;;
4460;SDS011;2243;48.812;9.232;2022-07-11T07:24:52;6.50;;;4.57;;
4460;SDS011;2243;48.812;9.232;2022-07-11T07:27:22;10.33;;;4.37;;
4460;SDS011;2243;48.812;9.232;2022-07-11T07:29:53;9.00;;;4.73;;
4460;SDS011;2243;48.812;9.232;2022-07-11T07:32:24;4.70;;;3.97;;
4460;SDS011;2243;48.812;9.232;2022-07-11T07:34:57;5.00;;;3.77;;
4460;SDS011;2243;48.812;9.232;2022-07-11T07:37:29;4.37;;;3.80;;
4460;SDS011;2243;48.812;9.232;2022-07-11T07:39:59;4.17;;;3.83;;
4460;SDS011;2243;48.812;9.232;2022-07-11T07:42:31;8.07;;;4.57;;
4460;SDS011;2243;48.812;9.232;2022-07-11T07:45:02;5.93;;;4.30;;
4460;SDS011;2243;48.812;9.232;2022-07-11T07:47:33;4.30;;;3.90;;
4460;SDS011;2243;48.812;9.232;2022-07-11T07:50:06;4.97;;;3.73;;
4460;SDS011;2243;48.812;9.232;2022-07-11T07:52:37;4.60;;;3.37;;
4460;SDS011;2243;48.812;9.232;2022-07-11T07:55:08;3.50;;;2.90;;
4460;SDS011;2243;48.812;9.232;2022-07-11T07:57:39;4.10;;;3.77;;
4460;SDS011;2243;48.812;9.232;2022-07-11T08:00:10;4.50;;;3.73;;
4460;SDS011;2243;48.812;9.232;2022-07-11T08:03:07;6.47;;;4.97;;
4460;SDS011;2243;48.812;9.232;2022-07-11T08:05:39;3.97;;;3.63;;
4460;SDS011;2243;48.812;9.232;2022-07-11T08:08:10;3.73;;;3.43;;
4460;SDS011;2243;48.812;9.232;2022-07-11T08:10:41;4.13;;;3.73;;
4460;SDS011;2243;48.812;9.232;2022-07-11T08:13:12;3.33;;;3.13;;
4460;SDS011;2243;48.812;9.232;2022-07-11T08:15:43;3.67;;;2.97;;
4460;SDS011;2243;48.812;9.232;2022-07-11T08:18:14;4.37;;;2.87;;
4460;SDS011;2243;48.812;9.232;2022-07-11T08:20:45;3.40;;;3.20;;
4460;SDS011;2243;48.812;9.232;2022-07-11T08:23:16;7.30;;;3.30;;
4460;SDS011;2243;48.812;9.232;2022-07-11T08:25:47;2.70;;;2.60;;
4460;SDS011;2243;48.812;9.232;2022-07-11T08:28:18;2.40;;;2.30;;
4460;SDS011;2243;48.812;9.232;2022-07-11T08:30:49;4.50;;;2.77;;
4460;SDS011;2243;48.812;9.232;2022-07-11T08:33:20;2.80;;;2.60;;
4460;SDS011;2243;48.812;9.232;2022-07-11T08:35:51;6.80;;;2.80;;
4460;SDS011;2243;48.812;9.232;2022-07-11T08:38:22;2.83;;;2.47;;
4460;SDS011;2243;48.812;9.232;2022-07-11T08:40:53;3.47;;;1.83;;
4460;SDS011;2243;48.812;9.232;2022-07-11T08:43:28;2.10;;;2.00;;
4460;SDS011;2243;48.812;9.232;2022-07-11T08:45:59;2.20;;;2.10;;
4460;SDS011;2243;48.812;9.232;2022-07-11T08:48:31;2.60;;;2.20;;
4460;SDS011;2243;48.812;9.232;2022-07-11T08:51:04;3.20;;;2.40;;
4460;SDS011;2243;48.812;9.232;2022-07-11T08:53:39;1.90;;;1.80;;
4460;SDS011;2243;48.812;9.232;2022-07-11T08:56:15;2.53;;;2.43;;
4460;SDS011;2243;48.812;9.232;2022-07-11T08:58:48;1.90;;;1.80;;
4460;SDS011;2243;48.812;9.232;2022-07-11T09:01:34;2.00;;;1.90;;
4460;SDS011;2243;48.812;9.232;2022-07-11T09:04:07;2.43;;;2.33;;
4460;SDS011;2243;48.812;9.232;2022-07-11T09:06:39;2.30;;;2.20;;
4460;SDS011;2243;48.812;9.232;2022-07-11T09:09:10;2.30;;;2.20;;
4460;SDS011;2243;48.812;9.232;2022-07-11T09:12:15;2.10;;;2.00;;
4460;SDS011;2243;48.812;9.232;2022-07-11T09:14:46;2.10;;;2.00;;
4460;SDS011;2243;48.812;9.232;2022-07-11T09:17:25;2.57;;;2.47;;
4460;SDS011;2243;48.812;9.232;2022-07-11T09:19:58;2.03;;;1.93;;
4460;SDS011;2243;48.812;9.232;2022-07-11T09:22:29;2.63;;;2.43;;
4460;SDS011;2243;48.812;9.232;2022-07-11T09:25:22;2.00;;;1.90;;
4460;SDS011;2243;48.812;9.232;2022-07-11T09:27:55;4.07;;;2.13;;
4460;SDS011;2243;48.812;9.232;2022-07-11T09:33:08;1.77;;;1.50;;
4460;SDS011;2243;48.812;9.232;2022-07-11T09:35:42;1.50;;;1.40;;
4460;SDS011;2243;48.812;9.232;2022-07-11T09:38:16;1.43;;;1.33;;
4460;SDS011;2243;48.812;9.232;2022-07-11T09:40:48;2.13;;;1.73;;
4460;SDS011;2243;48.812;9.232;2022-07-11T09:43:24;2.33;;;1.70;;
4460;SDS011;2243;48.812;9.232;2022-07-11T09:46:04;1.57;;;1.57;;
4460;SDS011;2243;48.812;9.232;2022-07-11T09:48:36;1.63;;;1.53;;
4460;SDS011;2243;48.812;9.232;2022-07-11T09:51:07;1.50;;;1.40;;
4460;SDS011;2243;48.812;9.232;2022-07-11T09:53:52;1.63;;;1.53;;
4460;SDS011;2243;48.812;9.232;2022-07-11T09:56:33;1.20;;;1.20;;
4460;SDS011;2243;48.812;9.232;2022-07-11T09:59:28;2.40;;;1.20;;
4460;SDS011;2243;48.812;9.232;2022-07-11T10:01:59;1.63;;;1.53;;
4460;SDS011;2243;48.812;9.232;2022-07-11T10:04:30;1.53;;;1.43;;
4460;SDS011;2243;48.812;9.232;2022-07-11T10:07:01;1.40;;;1.40;;
4460;SDS011;2243;48.812;9.232;2022-07-11T10:09:33;1.30;;;1.30;;
4460;SDS011;2243;48.812;9.232;2022-07-11T10:12:06;3.70;;;1.37;;
4460;SDS011;2243;48.812;9.232;2022-07-11T10:14:38;1.10;;;1.10;;
4460;SDS011;2243;48.812;9.232;2022-07-11T10:17:23;1.30;;;1.20;;
4460;SDS011;2243;48.812;9.232;2022-07-11T10:20:31;1.60;;;1.50;;
4460;SDS011;2243;48.812;9.232;2022-07-11T10:26:10;2.17;;;1.30;;
4460;SDS011;2243;48.812;9.232;2022-07-11T10:29:07;4.50;;;1.60;;
4460;SDS011;2243;48.812;9.232;2022-07-11T10:31:47;2.90;;;1.57;;
4460;SDS011;2243;48.812;9.232;2022-07-11T10:34:45;1.57;;;1.47;;
4460;SDS011;2243;48.812;9.232;2022-07-11T10:37:46;1.70;;;1.50;;
4460;SDS011;2243;48.812;9.232;2022-07-11T10:40:44;1.60;;;1.50;;
4460;SDS011;2243;48.812;9.232;2022-07-11T10:46:10;1.77;;;1.67;;
4460;SDS011;2243;48.812;9.232;2022-07-11T10:48:55;1.40;;;1.40;;
4460;SDS011;2243;48.812;9.232;2022-07-11T10:51:52;1.20;;;1.20;;
4460;SDS011;2243;48.812;9.232;2022-07-11T11:00:29;1.53;;;1.43;;
4460;SDS011;2243;48.812;9.232;2022-07-11T11:05:48;1.37;;;1.37;;
4460;SDS011;2243;48.812;9.232;2022-07-11T11:16:50;1.40;;;1.40;;
4460;SDS011;2243;48.812;9.232;2022-07-11T11:22:15;2.90;;;1.70;;
4460;SDS011;2243;48.812;9.232;2022-07-11T11:24:49;3.90;;;1.57;;
4460;SDS011;2243;48.812;9.232;2022-07-11T11:27:59;2.00;;;1.73;;
4460;SDS011;2243;48.812;9.232;2022-07-11T11:30:33;1.73;;;1.63;;
4460;SDS011;2243;48.812;9.232;2022-07-11T11:33:14;1.60;;;1.50;;
4460;SDS011;2243;48.812;9.232;2022-07-11T11:36:05;2.03;;;1.73;;
4460;SDS011;2243;48.812;9.232;2022-07-11T11:38:42;2.70;;;1.43;;
4460;SDS011;2243;48.812;9.232;2022-07-11T11:41:24;1.40;;;1.30;;
4460;SDS011;2243;48.812;9.232;2022-07-11T11:44:01;1.53;;;1.43;;
4460;SDS011;2243;48.812;9.232;2022-07-11T11:46:33;1.50;;;1.40;;
4460;SDS011;2243;48.812;9.232;2022-07-11T11:49:05;1.73;;;1.63;;
4460;SDS011;2243;48.812;9.232;2022-07-11T11:51:36;1.90;;;1.80;;
4460;SDS011;2243;48.812;9.232;2022-07-11T11:54:10;1.60;;;1.50;;
4460;SDS011;2243;48.812;9.232;2022-07-11T11:56:41;2.30;;;2.10;;
4460;SDS011;2243;48.812;9.232;2022-07-11T11:59:12;1.67;;;1.57;;
4460;SDS011;2243;48.812;9.232;2022-07-11T12:01:47;2.30;;;2.20;;
4460;SDS011;2243;48.812;9.232;2022-07-11T12:04:18;1.60;;;1.50;;
4460;SDS011;2243;48.812;9.232;2022-07-11T12:06:50;2.20;;;1.50;;
4460;SDS011;2243;48.812;9.232;2022-07-11T12:09:21;1.80;;;1.70;;
4460;SDS011;2243;48.812;9.232;2022-07-11T12:12:23;2.37;;;2.27;;
4460;SDS011;2243;48.812;9.232;2022-07-11T12:15:22;2.00;;;1.90;;
4460;SDS011;2243;48.812;9.232;2022-07-11T12:18:02;7.03;;;2.00;;
4460;SDS011;2243;48.812;9.232;2022-07-11T12:23:15;1.83;;;1.73;;
4460;SDS011;2243;48.812;9.232;2022-07-11T12:25:51;1.93;;;1.83;;
4460;SDS011;2243;48.812;9.232;2022-07-11T12:28:23;2.80;;;1.50;;
4460;SDS011;2243;48.812;9.232;2022-07-11T12:30:54;2.13;;;1.80;;
4460;SDS011;2243;48.812;9.232;2022-07-11T12:33:27;1.90;;;1.80;;
4460;SDS011;2243;48.812;9.232;2022-07-11T12:35:58;1.73;;;1.60;;
4460;SDS011;2243;48.812;9.232;2022-07-11T12:38:50;2.10;;;2.00;;
4460;SDS011;2243;48.812;9.232;2022-07-11T12:41:22;2.07;;;1.97;;
4460;SDS011;2243;48.812;9.232;2022-07-11T12:43:53;2.00;;;1.90;;
4460;SDS011;2243;48.812;9.232;2022-07-11T12:46:42;1.80;;;1.70;;
4460;SDS011;2243;48.812;9.232;2022-07-11T12:49:17;1.70;;;1.60;;
4460;SDS011;2243;48.812;9.232;2022-07-11T12:51:48;2.40;;;2.20;;
4460;SDS011;2243;48.812;9.232;2022-07-11T12:54:28;1.70;;;1.60;;
4460;SDS011;2243;48.812;9.232;2022-07-11T12:57:04;1.70;;;1.60;;
4460;SDS011;2243;48.812;9.232;2022-07-11T12:59:36;2.07;;;1.97;;
4460;SDS011;2243;48.812;9.232;2022-07-11T13:02:11;1.90;;;1.80;;
4460;SDS011;2243;48.812;9.232;2022-07-11T13:04:48;5.20;;;1.90;;
4460;SDS011;2243;48.812;9.232;2022-07-11T13:07:33;2.00;;;1.90;;
4460;SDS011;2243;48.812;9.232;2022-07-11T13:10:25;1.67;;;1.57;;
4460;SDS011;2243;48.812;9.232;2022-07-11T13:13:32;2.30;;;2.20;;
4460;SDS011;2243;48.812;9.232;2022-07-11T13:16:04;2.33;;;2.23;;
4460;SDS011;2243;48.812;9.232;2022-07-11T13:18:35;2.00;;;1.90;;
4460;SDS011;2243;48.812;9.232;2022-07-11T13:21:07;2.77;;;2.57;;
4460;SDS011;2243;48.812;9.232;2022-07-11T13:23:39;2.37;;;2.17;;
4460;SDS011;2243;48.812;9.232;2022-07-11T13:26:10;2.33;;;2.23;;
4460;SDS011;2243;48.812;9.232;2022-07-11T13:28:42;2.40;;;2.17;;
4460;SDS011;2243;48.812;9.232;2022-07-11T13:31:13;2.37;;;2.27;;
4460;SDS011;2243;48.812;9.232;2022-07-11T13:33:46;2.47;;;2.37;;
4460;SDS011;2243;48.812;9.232;2022-07-11T13:36:17;2.30;;;2.10;;
4460;SDS011;2243;48.812;9.232;2022-07-11T13:38:48;2.33;;;2.23;;
4460;SDS011;2243;48.812;9.232;2022-07-11T13:41:19;2.60;;;2.50;;
4460;SDS011;2243;48.812;9.232;2022-07-11T13:43:50;2.20;;;2.10;;
4460;SDS011;2243;48.812;9.232;2022-07-11T13:46:21;2.30;;;2.20;;
4460;SDS011;2243;48.812;9.232;2022-07-11T13:48:59;2.80;;;2.37;;
4460;SDS011;2243;48.812;9.232;2022-07-11T13:51:30;3.57;;;2.57;;
4460;SDS011;2243;48.812;9.232;2022-07-11T13:54:01;2.70;;;2.50;;
4460;SDS011;2243;48.812;9.232;2022-07-11T13:56:32;3.13;;;2.30;;
4460;SDS011;2243;48.812;9.232;2022-07-11T13:59:03;2.23;;;2.13;;
4460;SDS011;2243;48.812;9.232;2022-07-11T14:01:34;2.73;;;2.50;;
4460;SDS011;2243;48.812;9.232;2022-07-11T14:04:05;2.73;;;2.50;;
4460;SDS011;2243;48.812;9.232;2022-07-11T14:06:36;32.93;;;19.50;;
4460;SDS011;2243;48.812;9.232;2022-07-11T14:09:24;19.63;;;11.83;;
4460;SDS011;2243;48.812;9.232;2022-07-11T14:11:55;2.20;;;2.10;;
4460;SDS011;2243;48.812;9.232;2022-07-11T14:14:28;2.73;;;2.53;;
4460;SDS011;2243;48.812;9.232;2022-07-11T14:16:59;2.60;;;2.40;;
4460;SDS011;2243;48.812;9.232;2022-07-11T14:19:32;3.63;;;2.53;;
4460;SDS011;2243;48.812;9.232;2022-07-11T14:22:03;3.20;;;2.90;;
4460;SDS011;2243;48.812;9.232;2022-07-11T14:24:38;2.30;;;2.20;;
4460;SDS011;2243;48.812;9.232;2022-07-11T14:27:09;3.83;;;2.70;;
4460;SDS011;2243;48.812;9.232;2022-07-11T14:29:41;4.60;;;2.97;;
4460;SDS011;2243;48.812;9.232;2022-07-11T14:32:16;2.53;;;2.37;;
4460;SDS011;2243;48.812;9.232;2022-07-11T14:34:48;2.10;;;2.00;;
4460;SDS011;2243;48.812;9.232;2022-07-11T14:37:21;3.63;;;2.37;;
4460;SDS011;2243;48.812;9.232;2022-07-11T14:39:52;2.60;;;2.50;;
4460;SDS011;2243;48.812;9.232;2022-07-11T14:42:23;2.47;;;2.27;;
4460;SDS011;2243;48.812;9.232;2022-07-11T14:45:12;2.77;;;2.57;;
4460;SDS011;2243;48.812;9.232;2022-07-11T14:47:43;2.83;;;2.63;;
4460;SDS011;2243;48.812;9.232;2022-07-11T14:50:14;2.50;;;2.30;;
4460;SDS011;2243;48.812;9.232;2022-07-11T14:52:45;2.57;;;2.47;;
4460;SDS011;2243;48.812;9.232;2022-07-11T14:55:17;2.07;;;1.97;;
4460;SDS011;2243;48.812;9.232;2022-07-11T14:57:47;2.53;;;2.37;;
4460;SDS011;2243;48.812;9.232;2022-07-11T15:00:22;2.50;;;2.40;;
4460;SDS011;2243;48.812;9.232;2022-07-11T15:02:53;2.40;;;2.30;;
4460;SDS011;2243;48.812;9.232;2022-07-11T15:05:47;2.30;;;2.10;;
4460;SDS011;2243;48.812;9.232;2022-07-11T15:08:21;2.53;;;2.33;;
4460;SDS011;2243;48.812;9.232;2022-07-11T15:11:11;2.30;;;2.10;;
4460;SDS011;2243;48.812;9.232;2022-07-11T15:14:00;2.67;;;2.50;;
4460;SDS011;2243;48.812;9.232;2022-07-11T15:16:32;2.50;;;2.30;;
4460;SDS011;2243;48.812;9.232;2022-07-11T15:19:05;2.30;;;2.20;;
4460;SDS011;2243;48.812;9.232;2022-07-11T15:21:37;2.37;;;2.27;;
4460;SDS011;2243;48.812;9.232;2022-07-11T15:24:08;2.30;;;2.20;;
4460;SDS011;2243;48.812;9.232;2022-07-11T15:26:41;2.67;;;2.57;;
4460;SDS011;2243;48.812;9.232;2022-07-11T15:29:12;2.73;;;2.63;;
4460;SDS011;2243;48.812;9.232;2022-07-11T15:31:43;2.43;;;2.23;;
4460;SDS011;2243;48.812;9.232;2022-07-11T15:34:14;2.97;;;2.40;;
4460;SDS011;2243;48.812;9.232;2022-07-11T15:36:46;2.70;;;2.60;;
4460;SDS011;2243;48.812;9.232;2022-07-11T15:39:17;2.30;;;2.20;;
4460;SDS011;2243;48.812;9.232;2022-07-11T15:41:48;2.13;;;2.03;;
4460;SDS011;2243;48.812;9.232;2022-07-11T15:44:19;2.37;;;2.27;;
4460;SDS011;2243;48.812;9.232;2022-07-11T15:46:50;4.93;;;2.20;;
4460;SDS011;2243;48.812;9.232;2022-07-11T15:49:21;2.00;;;1.90;;
4460;SDS011;2243;48.812;9.232;2022-07-11T15:51:52;1.90;;;1.80;;
4460;SDS011;2243;48.812;9.232;2022-07-11T15:54:23;2.20;;;2.10;;
4460;SDS011;2243;48.812;9.232;2022-07-11T15:57:00;8.53;;;2.27;;
4460;SDS011;2243;48.812;9.232;2022-07-11T16:00:13;2.50;;;2.40;;
4460;SDS011;2243;48.812;9.232;2022-07-11T16:04:59;2.33;;;2.23;;
4460;SDS011;2243;48.812;9.232;2022-07-11T16:08:16;3.00;;;2.77;;
4460;SDS011;2243;48.812;9.232;2022-07-11T16:18:48;3.67;;;2.60;;
4460;SDS011;2243;48.812;9.232;2022-07-11T16:22:17;2.67;;;2.27;;
4460;SDS011;2243;48.812;9.232;2022-07-11T16:31:14;4.20;;;2.10;;
4460;SDS011;2243;48.812;9.232;2022-07-11T16:34:55;2.73;;;2.53;;
4460;SDS011;2243;48.812;9.232;2022-07-11T16:38:13;2.63;;;2.53;;
4460;SDS011;2243;48.812;9.232;2022-07-11T16:50:10;1.90;;;1.80;;
4460;SDS011;2243;48.812;9.232;2022-07-11T16:52:53;2.00;;;1.90;;
4460;SDS011;2243;48.812;9.232;2022-07-11T16:56:20;2.30;;;2.10;;